sensor_id;sensor_type;location;lat;lon;timestamp;P1;durP1;ratioP1;P2;durP2;ratioP2
77451;SDS011;66537;52.370;4.832;2023-03-02T00:01:53;50.53;;;23.60;;
77451;SDS011;66537;52.370;4.832;2023-03-02T00:04:21;48.72;;;24.80;;
77451;SDS011;66537;52.370;4.832;2023-03-02T00:06:50;55.45;;;25.60;;
77451;SDS011;66537;52.370;4.832;2023-03-02T00:09:19;49.92;;;23.85;;
77451;SDS011;66537;52.370;4.832;2023-03-02T00:11:45;51.28;;;24.20;;
77451;SDS011;66537;52.370;4.832;2023-03-02T00:14:10;48.28;;;22.58;;
77451;SDS011;66537;52.370;4.832;2023-03-02T00:16:36;59.85;;;28.25;;
77451;SDS011;66537;52.370;4.832;2023-03-02T00:19:01;57.88;;;26.08;;
77451;SDS011;66537;52.370;4.832;2023-03-02T00:21:27;54.42;;;25.15;;
77451;SDS011;66537;52.370;4.832;2023-03-02T00:23:52;57.35;;;25.83;;
77451;SDS011;66537;52.370;4.832;2023-03-02T00:26:18;48.92;;;23.98;;
77451;SDS011;66537;52.370;4.832;2023-03-02T00:28:43;53.58;;;24.33;;
77451;SDS011;66537;52.370;4.832;2023-03-02T00:31:09;53.50;;;24.70;;
77451;SDS011;66537;52.370;4.832;2023-03-02T00:33:34;49.83;;;24.17;;
77451;SDS011;66537;52.370;4.832;2023-03-02T00:36:00;49.67;;;23.95;;
77451;SDS011;66537;52.370;4.832;2023-03-02T00:38:26;51.55;;;23.35;;
77451;SDS011;66537;52.370;4.832;2023-03-02T00:40:51;56.05;;;26.08;;
77451;SDS011;66537;52.370;4.832;2023-03-02T00:43:17;59.33;;;25.05;;
77451;SDS011;66537;52.370;4.832;2023-03-02T00:45:42;49.33;;;23.80;;
77451;SDS011;66537;52.370;4.832;2023-03-02T00:48:08;53.15;;;23.40;;
77451;SDS011;66537;52.370;4.832;2023-03-02T00:50:34;52.90;;;23.77;;
77451;SDS011;66537;52.370;4.832;2023-03-02T00:53:06;53.08;;;23.15;;
77451;SDS011;66537;52.370;4.832;2023-03-02T00:55:32;53.92;;;24.15;;
77451;SDS011;66537;52.370;4.832;2023-03-02T00:57:58;52.30;;;24.02;;
77451;SDS011;66537;52.370;4.832;2023-03-02T01:00:23;54.72;;;24.15;;
77451;SDS011;66537;52.370;4.832;2023-03-02T01:02:51;53.95;;;25.75;;
77451;SDS011;66537;52.370;4.832;2023-03-02T01:05:16;47.80;;;22.20;;
77451;SDS011;66537;52.370;4.832;2023-03-02T01:07:42;47.13;;;22.27;;
77451;SDS011;66537;52.370;4.832;2023-03-02T01:10:07;53.22;;;24.25;;
77451;SDS011;66537;52.370;4.832;2023-03-02T01:12:34;47.72;;;22.40;;
77451;SDS011;66537;52.370;4.832;2023-03-02T01:14:59;51.40;;;24.45;;
77451;SDS011;66537;52.370;4.832;2023-03-02T01:17:25;46.30;;;21.42;;
77451;SDS011;66537;52.370;4.832;2023-03-02T01:19:51;48.17;;;22.50;;
77451;SDS011;66537;52.370;4.832;2023-03-02T01:22:17;50.30;;;23.63;;
77451;SDS011;66537;52.370;4.832;2023-03-02T01:24:43;46.85;;;21.25;;
77451;SDS011;66537;52.370;4.832;2023-03-02T01:27:08;44.97;;;20.80;;
77451;SDS011;66537;52.370;4.832;2023-03-02T01:29:34;41.28;;;20.75;;
77451;SDS011;66537;52.370;4.832;2023-03-02T01:32:00;45.55;;;21.52;;
77451;SDS011;66537;52.370;4.832;2023-03-02T01:34:26;44.88;;;20.08;;
77451;SDS011;66537;52.370;4.832;2023-03-02T01:36:52;46.00;;;21.55;;
77451;SDS011;66537;52.370;4.832;2023-03-02T01:39:18;41.88;;;19.10;;
77451;SDS011;66537;52.370;4.832;2023-03-02T01:41:46;41.90;;;19.70;;
77451;SDS011;66537;52.370;4.832;2023-03-02T01:47:10;41.75;;;19.40;;
77451;SDS011;66537;52.370;4.832;2023-03-02T01:49:39;41.13;;;19.38;;
77451;SDS011;66537;52.370;4.832;2023-03-02T01:52:08;38.47;;;18.88;;
77451;SDS011;66537;52.370;4.832;2023-03-02T01:54:36;44.95;;;19.42;;
77451;SDS011;66537;52.370;4.832;2023-03-02T01:57:02;43.17;;;19.73;;
77451;SDS011;66537;52.370;4.832;2023-03-02T01:59:30;44.92;;;21.17;;
77451;SDS011;66537;52.370;4.832;2023-03-02T02:01:57;39.78;;;19.33;;
77451;SDS011;66537;52.370;4.832;2023-03-02T02:04:25;41.95;;;19.63;;
77451;SDS011;66537;52.370;4.832;2023-03-02T02:06:55;42.15;;;19.52;;
77451;SDS011;66537;52.370;4.832;2023-03-02T02:09:25;38.30;;;19.13;;
77451;SDS011;66537;52.370;4.832;2023-03-02T02:11:54;42.00;;;19.15;;
77451;SDS011;66537;52.370;4.832;2023-03-02T02:14:19;39.92;;;18.73;;
77451;SDS011;66537;52.370;4.832;2023-03-02T02:16:45;37.30;;;18.38;;
77451;SDS011;66537;52.370;4.832;2023-03-02T02:22:06;39.72;;;18.35;;
77451;SDS011;66537;52.370;4.832;2023-03-02T02:24:48;37.05;;;18.17;;
77451;SDS011;66537;52.370;4.832;2023-03-02T02:27:17;40.33;;;18.83;;
77451;SDS011;66537;52.370;4.832;2023-03-02T02:29:43;38.20;;;18.98;;
77451;SDS011;66537;52.370;4.832;2023-03-02T02:32:14;39.17;;;18.23;;
77451;SDS011;66537;52.370;4.832;2023-03-02T02:37:37;38.50;;;17.48;;
77451;SDS011;66537;52.370;4.832;2023-03-02T02:40:20;37.88;;;17.40;;
77451;SDS011;66537;52.370;4.832;2023-03-02T02:43:02;40.45;;;19.10;;
77451;SDS011;66537;52.370;4.832;2023-03-02T02:45:28;39.15;;;18.38;;
77451;SDS011;66537;52.370;4.832;2023-03-02T02:47:54;36.72;;;17.17;;
77451;SDS011;66537;52.370;4.832;2023-03-02T02:50:24;37.50;;;17.27;;
77451;SDS011;66537;52.370;4.832;2023-03-02T02:53:01;37.95;;;17.83;;
77451;SDS011;66537;52.370;4.832;2023-03-02T02:55:30;35.45;;;17.98;;
77451;SDS011;66537;52.370;4.832;2023-03-02T02:57:58;34.58;;;16.77;;
77451;SDS011;66537;52.370;4.832;2023-03-02T03:00:26;40.25;;;17.60;;
77451;SDS011;66537;52.370;4.832;2023-03-02T03:02:57;36.13;;;17.23;;
77451;SDS011;66537;52.370;4.832;2023-03-02T03:05:27;36.72;;;16.27;;
77451;SDS011;66537;52.370;4.832;2023-03-02T03:08:04;36.33;;;16.45;;
77451;SDS011;66537;52.370;4.832;2023-03-02T03:10:32;32.75;;;16.27;;
77451;SDS011;66537;52.370;4.832;2023-03-02T03:13:05;35.05;;;17.02;;
77451;SDS011;66537;52.370;4.832;2023-03-02T03:15:32;36.58;;;16.80;;
77451;SDS011;66537;52.370;4.832;2023-03-02T03:17:58;32.65;;;15.40;;
77451;SDS011;66537;52.370;4.832;2023-03-02T03:20:24;35.53;;;15.38;;
77451;SDS011;66537;52.370;4.832;2023-03-02T03:22:51;31.30;;;15.02;;
77451;SDS011;66537;52.370;4.832;2023-03-02T03:25:18;31.88;;;15.65;;
77451;SDS011;66537;52.370;4.832;2023-03-02T03:27:44;32.95;;;14.82;;
77451;SDS011;66537;52.370;4.832;2023-03-02T03:30:10;33.22;;;16.10;;
77451;SDS011;66537;52.370;4.832;2023-03-02T03:32:37;32.33;;;16.13;;
77451;SDS011;66537;52.370;4.832;2023-03-02T03:35:03;34.60;;;15.68;;
77451;SDS011;66537;52.370;4.832;2023-03-02T03:37:32;31.42;;;15.35;;
77451;SDS011;66537;52.370;4.832;2023-03-02T03:39:58;30.45;;;13.77;;
77451;SDS011;66537;52.370;4.832;2023-03-02T03:42:24;35.05;;;17.42;;
77451;SDS011;66537;52.370;4.832;2023-03-02T03:44:49;31.75;;;14.65;;
77451;SDS011;66537;52.370;4.832;2023-03-02T03:47:15;31.92;;;14.80;;
77451;SDS011;66537;52.370;4.832;2023-03-02T03:49:40;29.20;;;14.32;;
77451;SDS011;66537;52.370;4.832;2023-03-02T03:52:05;32.13;;;14.52;;
77451;SDS011;66537;52.370;4.832;2023-03-02T03:54:31;29.55;;;14.40;;
77451;SDS011;66537;52.370;4.832;2023-03-02T03:56:56;30.10;;;15.30;;
77451;SDS011;66537;52.370;4.832;2023-03-02T03:59:22;28.88;;;14.27;;
77451;SDS011;66537;52.370;4.832;2023-03-02T04:01:49;29.65;;;14.95;;
77451;SDS011;66537;52.370;4.832;2023-03-02T04:04:21;32.05;;;14.43;;
77451;SDS011;66537;52.370;4.832;2023-03-02T04:06:50;33.53;;;14.95;;
77451;SDS011;66537;52.370;4.832;2023-03-02T04:09:15;28.63;;;13.88;;
77451;SDS011;66537;52.370;4.832;2023-03-02T04:11:44;31.75;;;14.80;;
77451;SDS011;66537;52.370;4.832;2023-03-02T04:14:12;34.83;;;16.63;;
77451;SDS011;66537;52.370;4.832;2023-03-02T04:16:39;32.03;;;14.63;;
77451;SDS011;66537;52.370;4.832;2023-03-02T04:19:05;28.50;;;13.70;;
77451;SDS011;66537;52.370;4.832;2023-03-02T04:21:33;31.38;;;13.98;;
77451;SDS011;66537;52.370;4.832;2023-03-02T04:24:00;29.83;;;13.98;;
77451;SDS011;66537;52.370;4.832;2023-03-02T04:26:26;31.40;;;15.40;;
77451;SDS011;66537;52.370;4.832;2023-03-02T04:28:51;33.42;;;15.55;;
77451;SDS011;66537;52.370;4.832;2023-03-02T04:31:17;28.85;;;14.10;;
77451;SDS011;66537;52.370;4.832;2023-03-02T04:33:42;28.10;;;13.77;;
77451;SDS011;66537;52.370;4.832;2023-03-02T04:36:07;29.40;;;13.98;;
77451;SDS011;66537;52.370;4.832;2023-03-02T04:38:33;27.73;;;13.55;;
77451;SDS011;66537;52.370;4.832;2023-03-02T04:40:58;29.88;;;14.38;;
77451;SDS011;66537;52.370;4.832;2023-03-02T04:43:24;29.90;;;14.95;;
77451;SDS011;66537;52.370;4.832;2023-03-02T04:45:50;30.20;;;14.68;;
77451;SDS011;66537;52.370;4.832;2023-03-02T04:48:16;28.50;;;14.45;;
77451;SDS011;66537;52.370;4.832;2023-03-02T04:50:41;30.92;;;14.18;;
77451;SDS011;66537;52.370;4.832;2023-03-02T04:53:07;28.40;;;13.77;;
77451;SDS011;66537;52.370;4.832;2023-03-02T04:55:33;26.98;;;13.55;;
77451;SDS011;66537;52.370;4.832;2023-03-02T04:57:58;30.42;;;14.00;;
77451;SDS011;66537;52.370;4.832;2023-03-02T05:00:24;26.92;;;13.00;;
77451;SDS011;66537;52.370;4.832;2023-03-02T05:02:49;28.52;;;13.90;;
77451;SDS011;66537;52.370;4.832;2023-03-02T05:05:16;28.83;;;14.23;;
77451;SDS011;66537;52.370;4.832;2023-03-02T05:07:43;25.90;;;12.80;;
77451;SDS011;66537;52.370;4.832;2023-03-02T05:10:10;30.45;;;14.52;;
77451;SDS011;66537;52.370;4.832;2023-03-02T05:12:37;30.40;;;14.43;;
77451;SDS011;66537;52.370;4.832;2023-03-02T05:15:19;28.42;;;13.75;;
77451;SDS011;66537;52.370;4.832;2023-03-02T05:17:48;28.70;;;14.00;;
77451;SDS011;66537;52.370;4.832;2023-03-02T05:20:13;31.90;;;15.25;;
77451;SDS011;66537;52.370;4.832;2023-03-02T05:22:39;29.67;;;13.40;;
77451;SDS011;66537;52.370;4.832;2023-03-02T05:25:04;28.30;;;12.77;;
77451;SDS011;66537;52.370;4.832;2023-03-02T05:27:30;31.60;;;14.43;;
77451;SDS011;66537;52.370;4.832;2023-03-02T05:29:56;29.17;;;14.20;;
77451;SDS011;66537;52.370;4.832;2023-03-02T05:32:21;28.98;;;14.32;;
77451;SDS011;66537;52.370;4.832;2023-03-02T05:34:46;29.07;;;13.20;;
77451;SDS011;66537;52.370;4.832;2023-03-02T05:37:12;28.48;;;13.25;;
77451;SDS011;66537;52.370;4.832;2023-03-02T05:39:37;28.23;;;13.98;;
77451;SDS011;66537;52.370;4.832;2023-03-02T05:42:03;30.17;;;13.95;;
77451;SDS011;66537;52.370;4.832;2023-03-02T05:44:29;30.40;;;13.95;;
77451;SDS011;66537;52.370;4.832;2023-03-02T05:46:55;28.70;;;13.70;;
77451;SDS011;66537;52.370;4.832;2023-03-02T05:49:20;32.87;;;15.70;;
77451;SDS011;66537;52.370;4.832;2023-03-02T05:51:45;30.15;;;13.60;;
77451;SDS011;66537;52.370;4.832;2023-03-02T05:54:11;37.80;;;15.80;;
77451;SDS011;66537;52.370;4.832;2023-03-02T05:56:36;34.60;;;15.00;;
77451;SDS011;66537;52.370;4.832;2023-03-02T05:59:02;35.33;;;15.88;;
77451;SDS011;66537;52.370;4.832;2023-03-02T06:01:27;34.90;;;15.80;;
77451;SDS011;66537;52.370;4.832;2023-03-02T06:03:53;32.33;;;15.85;;
77451;SDS011;66537;52.370;4.832;2023-03-02T06:06:18;36.67;;;16.37;;
77451;SDS011;66537;52.370;4.832;2023-03-02T06:08:43;39.20;;;16.50;;
77451;SDS011;66537;52.370;4.832;2023-03-02T06:11:09;33.97;;;15.40;;
77451;SDS011;66537;52.370;4.832;2023-03-02T06:13:36;39.30;;;16.75;;
77451;SDS011;66537;52.370;4.832;2023-03-02T06:16:01;35.40;;;15.95;;
77451;SDS011;66537;52.370;4.832;2023-03-02T06:18:27;31.73;;;14.98;;
77451;SDS011;66537;52.370;4.832;2023-03-02T06:20:52;32.38;;;16.05;;
77451;SDS011;66537;52.370;4.832;2023-03-02T06:23:18;35.60;;;15.70;;
77451;SDS011;66537;52.370;4.832;2023-03-02T06:25:43;38.00;;;15.77;;
77451;SDS011;66537;52.370;4.832;2023-03-02T06:28:13;35.83;;;15.45;;
77451;SDS011;66537;52.370;4.832;2023-03-02T06:30:44;36.08;;;15.80;;
77451;SDS011;66537;52.370;4.832;2023-03-02T06:33:12;35.63;;;16.85;;
77451;SDS011;66537;52.370;4.832;2023-03-02T06:35:39;31.33;;;15.07;;
77451;SDS011;66537;52.370;4.832;2023-03-02T06:38:04;34.65;;;15.23;;
77451;SDS011;66537;52.370;4.832;2023-03-02T06:40:30;33.20;;;15.80;;
77451;SDS011;66537;52.370;4.832;2023-03-02T06:42:55;34.67;;;14.20;;
77451;SDS011;66537;52.370;4.832;2023-03-02T06:45:21;30.20;;;14.07;;
77451;SDS011;66537;52.370;4.832;2023-03-02T06:47:46;35.00;;;15.90;;
77451;SDS011;66537;52.370;4.832;2023-03-02T06:50:11;31.57;;;14.80;;
77451;SDS011;66537;52.370;4.832;2023-03-02T06:52:37;33.95;;;16.55;;
77451;SDS011;66537;52.370;4.832;2023-03-02T06:55:02;34.03;;;15.85;;
77451;SDS011;66537;52.370;4.832;2023-03-02T06:57:28;29.50;;;14.82;;
77451;SDS011;66537;52.370;4.832;2023-03-02T06:59:58;34.17;;;14.88;;
77451;SDS011;66537;52.370;4.832;2023-03-02T07:02:24;35.17;;;15.00;;
77451;SDS011;66537;52.370;4.832;2023-03-02T07:04:50;32.15;;;16.15;;
77451;SDS011;66537;52.370;4.832;2023-03-02T07:07:15;32.47;;;14.98;;
77451;SDS011;66537;52.370;4.832;2023-03-02T07:09:41;34.87;;;16.03;;
77451;SDS011;66537;52.370;4.832;2023-03-02T07:12:06;30.47;;;14.27;;
77451;SDS011;66537;52.370;4.832;2023-03-02T07:14:33;32.78;;;15.18;;
77451;SDS011;66537;52.370;4.832;2023-03-02T07:17:00;31.63;;;14.85;;
77451;SDS011;66537;52.370;4.832;2023-03-02T07:19:28;33.10;;;14.45;;
77451;SDS011;66537;52.370;4.832;2023-03-02T07:21:53;28.80;;;13.93;;
77451;SDS011;66537;52.370;4.832;2023-03-02T07:24:19;28.60;;;13.57;;
77451;SDS011;66537;52.370;4.832;2023-03-02T07:26:44;32.42;;;13.98;;
77451;SDS011;66537;52.370;4.832;2023-03-02T07:29:10;32.22;;;14.10;;
77451;SDS011;66537;52.370;4.832;2023-03-02T07:31:35;32.83;;;14.73;;
77451;SDS011;66537;52.370;4.832;2023-03-02T07:34:00;26.93;;;12.80;;
77451;SDS011;66537;52.370;4.832;2023-03-02T07:36:26;31.03;;;15.17;;
77451;SDS011;66537;52.370;4.832;2023-03-02T07:38:51;31.58;;;15.10;;
77451;SDS011;66537;52.370;4.832;2023-03-02T07:41:17;30.58;;;13.85;;
77451;SDS011;66537;52.370;4.832;2023-03-02T07:43:42;31.33;;;14.23;;
77451;SDS011;66537;52.370;4.832;2023-03-02T07:46:07;29.98;;;14.75;;
77451;SDS011;66537;52.370;4.832;2023-03-02T07:48:33;31.20;;;14.90;;
77451;SDS011;66537;52.370;4.832;2023-03-02T07:50:59;32.38;;;14.82;;
77451;SDS011;66537;52.370;4.832;2023-03-02T07:53:26;29.00;;;13.90;;
77451;SDS011;66537;52.370;4.832;2023-03-02T07:55:53;31.40;;;14.02;;
77451;SDS011;66537;52.370;4.832;2023-03-02T07:58:19;32.95;;;13.75;;
77451;SDS011;66537;52.370;4.832;2023-03-02T08:00:44;29.75;;;13.77;;
77451;SDS011;66537;52.370;4.832;2023-03-02T08:03:10;27.35;;;14.07;;
77451;SDS011;66537;52.370;4.832;2023-03-02T08:05:35;28.95;;;13.40;;
77451;SDS011;66537;52.370;4.832;2023-03-02T08:08:00;29.00;;;13.93;;
77451;SDS011;66537;52.370;4.832;2023-03-02T08:10:26;28.85;;;13.57;;
77451;SDS011;66537;52.370;4.832;2023-03-02T08:12:51;26.73;;;12.65;;
77451;SDS011;66537;52.370;4.832;2023-03-02T08:15:16;27.67;;;13.73;;
77451;SDS011;66537;52.370;4.832;2023-03-02T08:17:42;25.30;;;12.07;;
77451;SDS011;66537;52.370;4.832;2023-03-02T08:20:09;26.70;;;13.07;;
77451;SDS011;66537;52.370;4.832;2023-03-02T08:22:34;25.77;;;13.00;;
77451;SDS011;66537;52.370;4.832;2023-03-02T08:25:00;26.20;;;13.20;;
77451;SDS011;66537;52.370;4.832;2023-03-02T08:27:25;24.17;;;12.18;;
77451;SDS011;66537;52.370;4.832;2023-03-02T08:29:51;25.58;;;12.35;;
77451;SDS011;66537;52.370;4.832;2023-03-02T08:32:18;24.73;;;11.85;;
77451;SDS011;66537;52.370;4.832;2023-03-02T08:34:43;23.30;;;11.13;;
77451;SDS011;66537;52.370;4.832;2023-03-02T08:37:09;23.83;;;11.57;;
77451;SDS011;66537;52.370;4.832;2023-03-02T08:39:34;22.42;;;11.07;;
77451;SDS011;66537;52.370;4.832;2023-03-02T08:42:00;27.40;;;11.65;;
77451;SDS011;66537;52.370;4.832;2023-03-02T08:44:25;24.33;;;11.73;;
77451;SDS011;66537;52.370;4.832;2023-03-02T08:46:50;24.73;;;11.85;;
77451;SDS011;66537;52.370;4.832;2023-03-02T08:49:16;26.60;;;11.88;;
77451;SDS011;66537;52.370;4.832;2023-03-02T08:51:43;23.75;;;11.63;;
77451;SDS011;66537;52.370;4.832;2023-03-02T08:54:09;25.27;;;12.50;;
77451;SDS011;66537;52.370;4.832;2023-03-02T08:56:35;24.83;;;12.25;;
77451;SDS011;66537;52.370;4.832;2023-03-02T08:59:06;24.70;;;13.45;;
77451;SDS011;66537;52.370;4.832;2023-03-02T09:01:35;24.98;;;12.18;;
77451;SDS011;66537;52.370;4.832;2023-03-02T09:04:02;24.88;;;12.02;;
77451;SDS011;66537;52.370;4.832;2023-03-02T09:06:30;25.85;;;13.13;;
77451;SDS011;66537;52.370;4.832;2023-03-02T09:08:58;24.75;;;12.88;;
77451;SDS011;66537;52.370;4.832;2023-03-02T09:11:24;25.58;;;12.52;;
77451;SDS011;66537;52.370;4.832;2023-03-02T09:13:50;27.98;;;11.90;;
77451;SDS011;66537;52.370;4.832;2023-03-02T09:16:16;26.70;;;12.65;;
77451;SDS011;66537;52.370;4.832;2023-03-02T09:18:44;25.63;;;12.25;;
77451;SDS011;66537;52.370;4.832;2023-03-02T09:21:09;26.85;;;12.95;;
77451;SDS011;66537;52.370;4.832;2023-03-02T09:23:35;23.40;;;11.15;;
77451;SDS011;66537;52.370;4.832;2023-03-02T09:26:00;25.17;;;11.85;;
77451;SDS011;66537;52.370;4.832;2023-03-02T09:28:26;23.55;;;11.35;;
77451;SDS011;66537;52.370;4.832;2023-03-02T09:30:53;24.98;;;12.68;;
77451;SDS011;66537;52.370;4.832;2023-03-02T09:33:21;25.00;;;11.65;;
77451;SDS011;66537;52.370;4.832;2023-03-02T09:35:47;23.92;;;12.82;;
77451;SDS011;66537;52.370;4.832;2023-03-02T09:38:13;24.17;;;11.10;;
77451;SDS011;66537;52.370;4.832;2023-03-02T09:43:20;25.30;;;12.25;;
77451;SDS011;66537;52.370;4.832;2023-03-02T09:46:17;25.23;;;12.25;;
77451;SDS011;66537;52.370;4.832;2023-03-02T09:54:26;30.42;;;13.93;;
77451;SDS011;66537;52.370;4.832;2023-03-02T09:56:55;28.08;;;13.50;;
77451;SDS011;66537;52.370;4.832;2023-03-02T09:59:30;25.40;;;12.13;;
77451;SDS011;66537;52.370;4.832;2023-03-02T10:04:39;28.65;;;13.63;;
77451;SDS011;66537;52.370;4.832;2023-03-02T10:07:12;29.13;;;14.10;;
77451;SDS011;66537;52.370;4.832;2023-03-02T10:09:39;29.63;;;14.50;;
77451;SDS011;66537;52.370;4.832;2023-03-02T10:20:26;28.45;;;13.25;;
77451;SDS011;66537;52.370;4.832;2023-03-02T10:23:01;29.83;;;13.50;;
77451;SDS011;66537;52.370;4.832;2023-03-02T10:25:46;27.67;;;12.93;;
77451;SDS011;66537;52.370;4.832;2023-03-02T10:28:18;31.17;;;14.07;;
77451;SDS011;66537;52.370;4.832;2023-03-02T10:30:45;27.33;;;12.80;;
77451;SDS011;66537;52.370;4.832;2023-03-02T10:33:22;29.15;;;13.82;;
77451;SDS011;66537;52.370;4.832;2023-03-02T10:35:48;26.50;;;13.90;;
77451;SDS011;66537;52.370;4.832;2023-03-02T10:38:19;25.45;;;13.05;;
77451;SDS011;66537;52.370;4.832;2023-03-02T10:43:29;28.70;;;13.02;;
77451;SDS011;66537;52.370;4.832;2023-03-02T10:45:59;29.23;;;12.75;;
77451;SDS011;66537;52.370;4.832;2023-03-02T10:48:27;30.30;;;14.18;;
77451;SDS011;66537;52.370;4.832;2023-03-02T10:50:53;27.45;;;13.63;;
77451;SDS011;66537;52.370;4.832;2023-03-02T10:53:19;28.33;;;12.02;;
77451;SDS011;66537;52.370;4.832;2023-03-02T10:55:46;30.65;;;14.00;;
77451;SDS011;66537;52.370;4.832;2023-03-02T10:58:21;26.45;;;13.80;;
77451;SDS011;66537;52.370;4.832;2023-03-02T11:00:55;26.92;;;13.15;;
77451;SDS011;66537;52.370;4.832;2023-03-02T11:03:21;24.88;;;13.35;;
77451;SDS011;66537;52.370;4.832;2023-03-02T11:05:47;23.52;;;11.63;;
77451;SDS011;66537;52.370;4.832;2023-03-02T11:08:17;25.15;;;12.82;;
77451;SDS011;66537;52.370;4.832;2023-03-02T11:10:56;25.75;;;12.98;;
77451;SDS011;66537;52.370;4.832;2023-03-02T11:15:59;28.60;;;13.73;;
77451;SDS011;66537;52.370;4.832;2023-03-02T11:18:36;28.40;;;14.30;;
77451;SDS011;66537;52.370;4.832;2023-03-02T11:21:16;24.48;;;12.32;;
77451;SDS011;66537;52.370;4.832;2023-03-02T11:26:46;25.67;;;12.95;;
77451;SDS011;66537;52.370;4.832;2023-03-02T11:34:42;25.95;;;12.10;;
77451;SDS011;66537;52.370;4.832;2023-03-02T11:37:20;27.23;;;12.25;;
77451;SDS011;66537;52.370;4.832;2023-03-02T11:40:16;27.00;;;13.55;;
77451;SDS011;66537;52.370;4.832;2023-03-02T11:42:46;26.15;;;11.98;;
77451;SDS011;66537;52.370;4.832;2023-03-02T11:47:38;22.83;;;11.70;;
77451;SDS011;66537;52.370;4.832;2023-03-02T11:50:14;24.73;;;12.43;;
77451;SDS011;66537;52.370;4.832;2023-03-02T11:52:41;26.30;;;12.75;;
77451;SDS011;66537;52.370;4.832;2023-03-02T11:55:17;27.02;;;13.93;;
77451;SDS011;66537;52.370;4.832;2023-03-02T11:57:47;27.98;;;14.15;;
77451;SDS011;66537;52.370;4.832;2023-03-02T12:02:56;27.40;;;12.85;;
77451;SDS011;66537;52.370;4.832;2023-03-02T12:05:27;25.05;;;12.85;;
77451;SDS011;66537;52.370;4.832;2023-03-02T12:07:56;27.80;;;13.38;;
77451;SDS011;66537;52.370;4.832;2023-03-02T12:10:31;24.23;;;12.13;;
77451;SDS011;66537;52.370;4.832;2023-03-02T12:13:19;27.65;;;12.07;;
77451;SDS011;66537;52.370;4.832;2023-03-02T12:15:52;24.95;;;12.90;;
77451;SDS011;66537;52.370;4.832;2023-03-02T12:20:56;27.23;;;12.73;;
77451;SDS011;66537;52.370;4.832;2023-03-02T12:23:26;27.40;;;12.98;;
77451;SDS011;66537;52.370;4.832;2023-03-02T12:31:45;25.77;;;12.18;;
77451;SDS011;66537;52.370;4.832;2023-03-02T12:34:24;24.35;;;11.60;;
77451;SDS011;66537;52.370;4.832;2023-03-02T12:36:54;23.80;;;11.63;;
77451;SDS011;66537;52.370;4.832;2023-03-02T12:47:38;24.25;;;12.30;;
77451;SDS011;66537;52.370;4.832;2023-03-02T12:52:44;25.05;;;12.48;;
77451;SDS011;66537;52.370;4.832;2023-03-02T12:55:21;24.42;;;11.82;;
77451;SDS011;66537;52.370;4.832;2023-03-02T12:57:47;26.75;;;12.20;;
77451;SDS011;66537;52.370;4.832;2023-03-02T13:00:15;24.05;;;12.20;;
77451;SDS011;66537;52.370;4.832;2023-03-02T13:02:49;25.02;;;11.40;;
77451;SDS011;66537;52.370;4.832;2023-03-02T13:05:17;23.90;;;11.15;;
77451;SDS011;66537;52.370;4.832;2023-03-02T13:08:03;26.85;;;11.65;;
77451;SDS011;66537;52.370;4.832;2023-03-02T13:10:42;29.92;;;13.20;;
77451;SDS011;66537;52.370;4.832;2023-03-02T13:16:00;31.77;;;13.80;;
77451;SDS011;66537;52.370;4.832;2023-03-02T13:18:31;30.55;;;13.68;;
77451;SDS011;66537;52.370;4.832;2023-03-02T13:20:59;29.33;;;14.40;;
77451;SDS011;66537;52.370;4.832;2023-03-02T13:23:26;29.17;;;12.90;;
77451;SDS011;66537;52.370;4.832;2023-03-02T13:25:54;28.40;;;13.20;;
77451;SDS011;66537;52.370;4.832;2023-03-02T13:30:56;33.45;;;14.73;;
77451;SDS011;66537;52.370;4.832;2023-03-02T13:33:24;31.60;;;14.30;;
77451;SDS011;66537;52.370;4.832;2023-03-02T13:35:51;29.13;;;13.63;;
77451;SDS011;66537;52.370;4.832;2023-03-02T13:38:20;29.25;;;13.23;;
77451;SDS011;66537;52.370;4.832;2023-03-02T13:40:50;29.45;;;13.93;;
77451;SDS011;66537;52.370;4.832;2023-03-02T13:43:18;27.35;;;12.30;;
77451;SDS011;66537;52.370;4.832;2023-03-02T13:46:33;26.83;;;12.18;;
77451;SDS011;66537;52.370;4.832;2023-03-02T13:48:34;22.75;;;11.20;;
77451;SDS011;66537;52.370;4.832;2023-03-02T13:51:02;26.27;;;12.23;;
77451;SDS011;66537;52.370;4.832;2023-03-02T13:53:38;22.38;;;10.55;;
77451;SDS011;66537;52.370;4.832;2023-03-02T13:56:10;24.13;;;11.25;;
77451;SDS011;66537;52.370;4.832;2023-03-02T13:58:40;24.70;;;11.00;;
77451;SDS011;66537;52.370;4.832;2023-03-02T14:01:06;25.60;;;12.48;;
77451;SDS011;66537;52.370;4.832;2023-03-02T14:03:31;24.60;;;11.82;;
77451;SDS011;66537;52.370;4.832;2023-03-02T14:05:57;24.50;;;11.63;;
77451;SDS011;66537;52.370;4.832;2023-03-02T14:08:24;22.10;;;10.68;;
77451;SDS011;66537;52.370;4.832;2023-03-02T14:10:50;22.15;;;10.90;;
77451;SDS011;66537;52.370;4.832;2023-03-02T14:13:22;20.25;;;9.98;;
77451;SDS011;66537;52.370;4.832;2023-03-02T14:16:00;21.23;;;9.93;;
77451;SDS011;66537;52.370;4.832;2023-03-02T14:18:27;23.58;;;10.95;;
77451;SDS011;66537;52.370;4.832;2023-03-02T14:20:56;18.98;;;9.30;;
77451;SDS011;66537;52.370;4.832;2023-03-02T14:23:23;20.75;;;10.77;;
77451;SDS011;66537;52.370;4.832;2023-03-02T14:25:49;19.63;;;10.35;;
77451;SDS011;66537;52.370;4.832;2023-03-02T14:28:18;23.13;;;11.73;;
77451;SDS011;66537;52.370;4.832;2023-03-02T14:30:49;23.35;;;11.35;;
77451;SDS011;66537;52.370;4.832;2023-03-02T14:33:18;19.90;;;10.48;;
77451;SDS011;66537;52.370;4.832;2023-03-02T14:35:45;20.17;;;9.95;;
77451;SDS011;66537;52.370;4.832;2023-03-02T14:38:12;23.08;;;11.10;;
77451;SDS011;66537;52.370;4.832;2023-03-02T14:40:37;21.65;;;11.13;;
77451;SDS011;66537;52.370;4.832;2023-03-02T14:43:02;22.83;;;11.75;;
77451;SDS011;66537;52.370;4.832;2023-03-02T14:45:28;23.90;;;11.35;;
77451;SDS011;66537;52.370;4.832;2023-03-02T14:47:53;22.03;;;11.13;;
77451;SDS011;66537;52.370;4.832;2023-03-02T14:50:19;23.90;;;10.90;;
77451;SDS011;66537;52.370;4.832;2023-03-02T14:52:46;24.73;;;12.43;;
77451;SDS011;66537;52.370;4.832;2023-03-02T14:55:31;24.83;;;12.00;;
77451;SDS011;66537;52.370;4.832;2023-03-02T14:57:59;25.48;;;11.90;;
77451;SDS011;66537;52.370;4.832;2023-03-02T15:00:30;23.75;;;11.95;;
77451;SDS011;66537;52.370;4.832;2023-03-02T15:02:55;26.35;;;12.60;;
77451;SDS011;66537;52.370;4.832;2023-03-02T15:05:21;24.27;;;12.07;;
77451;SDS011;66537;52.370;4.832;2023-03-02T15:07:46;25.25;;;12.07;;
77451;SDS011;66537;52.370;4.832;2023-03-02T15:10:14;25.70;;;12.50;;
77451;SDS011;66537;52.370;4.832;2023-03-02T15:12:43;25.30;;;12.65;;
77451;SDS011;66537;52.370;4.832;2023-03-02T15:15:09;22.30;;;11.65;;
77451;SDS011;66537;52.370;4.832;2023-03-02T15:17:35;24.67;;;11.20;;
77451;SDS011;66537;52.370;4.832;2023-03-02T15:20:00;25.20;;;13.20;;
77451;SDS011;66537;52.370;4.832;2023-03-02T15:22:26;22.75;;;11.98;;
77451;SDS011;66537;52.370;4.832;2023-03-02T15:24:51;24.95;;;12.10;;
77451;SDS011;66537;52.370;4.832;2023-03-02T15:27:17;22.85;;;11.55;;
77451;SDS011;66537;52.370;4.832;2023-03-02T15:29:45;24.50;;;11.68;;
77451;SDS011;66537;52.370;4.832;2023-03-02T15:32:11;21.55;;;11.18;;
77451;SDS011;66537;52.370;4.832;2023-03-02T15:34:37;23.92;;;11.50;;
77451;SDS011;66537;52.370;4.832;2023-03-02T15:37:02;20.75;;;11.07;;